Time;durP1;ratioP1;P1;durP2;ratioP2;P2;SDS_P1;SDS_P2;PMS_P1;PMS_P2;Temp;Humidity;BMP_temperature;BMP_pressure;BME280_temperature;BME280_humidity;BME280_pressure;Samples;Min_cycle;Max_cycle;Signal;HPM_P1;HPM_P2
2023/03/21 00:01:06;;;;;;;3.92;2.58;;;13.80;99.90;;;;;;5023608;28;20478;-52
2023/03/21 00:03:33;;;;;;;2.33;1.92;;;13.80;99.90;;;;;;5046799;28;20040;-53
2023/03/21 00:06:04;;;;;;;2.40;1.65;;;13.90;99.90;;;;;;5028622;28;20105;-53
2023/03/21 00:08:30;;;;;;;1.48;1.23;;;13.80;99.90;;;;;;5018324;28;20561;-53
2023/03/21 00:11:05;;;;;;;1.70;1.52;;;13.60;99.90;;;;;;5025598;28;20120;-51
2023/03/21 00:13:32;;;;;;;1.17;1.08;;;13.70;99.90;;;;;;5046006;28;20134;-54
2023/03/21 00:16:03;;;;;;;1.38;1.23;;;13.60;99.90;;;;;;5033178;28;20045;-52
2023/03/21 00:18:29;;;;;;;2.17;1.27;;;13.60;99.90;;;;;;5042333;28;20041;-52
2023/03/21 00:20:59;;;;;;;1.90;1.13;;;13.30;99.90;;;;;;5055874;28;20049;-53
2023/03/21 00:23:26;;;;;;;4.25;1.75;;;13.20;99.90;;;;;;5043179;28;20078;-52
2023/03/21 00:25:52;;;;;;;0.95;0.95;;;13.00;99.90;;;;;;5033746;28;20036;-54
2023/03/21 00:28:19;;;;;;;1.15;1.02;;;12.90;99.90;;;;;;5012245;28;20124;-52
2023/03/21 00:30:45;;;;;;;0.55;0.55;;;12.80;99.90;;;;;;5044253;28;20033;-52
2023/03/21 00:33:12;;;;;;;0.68;0.68;;;;;;;;;;5031200;28;20056;-52
2023/03/21 00:35:42;;;;;;;0.38;0.38;;;12.90;99.90;;;;;;5041009;28;20034;-52
2023/03/21 00:38:08;;;;;;;0.55;0.55;;;13.00;99.90;;;;;;5041353;28;20044;-52
2023/03/21 00:40:34;;;;;;;0.40;0.38;;;13.00;99.90;;;;;;5005990;28;20503;-52
2023/03/21 00:43:00;;;;;;;0.30;0.30;;;13.10;99.90;;;;;;5033617;28;20041;-51
2023/03/21 00:45:26;;;;;;;0.47;0.47;;;13.20;99.90;;;;;;4969326;28;20447;-54
2023/03/21 00:47:51;;;;;;;0.15;0.15;;;13.20;99.90;;;;;;5021380;28;20041;-52
2023/03/21 00:50:17;;;;;;;0.20;0.20;;;13.20;99.90;;;;;;5029118;28;20144;-50
2023/03/21 00:52:43;;;;;;;3.63;0.50;;;13.20;99.90;;;;;;5022029;28;20164;-53
2023/03/21 00:55:17;;;;;;;0.50;0.50;;;13.10;99.90;;;;;;5028997;28;20049;-51
2023/03/21 00:57:44;;;;;;;0.82;0.82;;;13.00;99.90;;;;;;5025751;28;20048;-53
2023/03/21 01:00:13;;;;;;;1.02;0.60;;;12.90;99.90;;;;;;5023796;28;20049;-52
2023/03/21 01:02:55;;;;;;;1.27;0.70;;;13.00;99.90;;;;;;5023088;28;20033;-53
2023/03/21 01:08:11;;;;;;;0.30;0.30;;;12.70;99.90;;;;;;5030071;28;20044;-53
2023/03/21 01:10:43;;;;;;;0.28;0.28;;;12.10;99.90;;;;;;5024152;28;20080;-54
2023/03/21 01:13:09;;;;;;;0.20;0.20;;;12.20;99.90;;;;;;5029117;28;20473;-52
2023/03/21 01:15:41;;;;;;;0.65;0.65;;;12.20;99.90;;;;;;5029156;28;20040;-53
2023/03/21 01:18:07;;;;;;;0.52;0.52;;;12.30;99.90;;;;;;5024381;28;20501;-53
2023/03/21 01:20:32;;;;;;;0.38;0.38;;;12.50;99.90;;;;;;5031216;28;20045;-53
2023/03/21 01:22:58;;;;;;;0.70;0.35;;;12.50;99.90;;;;;;5027806;28;20038;-53
2023/03/21 01:25:24;;;;;;;0.20;0.20;;;12.40;99.90;;;;;;5024846;28;20053;-53
2023/03/21 01:27:50;;;;;;;0.38;0.38;;;12.50;99.90;;;;;;5025661;28;20030;-53
2023/03/21 01:30:16;;;;;;;0.30;0.30;;;12.70;99.90;;;;;;5031723;28;20109;-54
2023/03/21 01:32:41;;;;;;;2.22;0.30;;;12.80;99.90;;;;;;5024510;28;20038;-52
2023/03/21 01:35:07;;;;;;;3.20;0.52;;;12.80;99.90;;;;;;5029322;28;20036;-52
2023/03/21 01:37:34;;;;;;;0.50;0.50;;;12.80;99.90;;;;;;5009089;28;20088;-53
2023/03/21 01:39:59;;;;;;;0.10;0.10;;;12.90;99.90;;;;;;5028549;28;20041;-53
2023/03/21 01:42:25;;;;;;;0.10;0.10;;;13.00;99.90;;;;;;5025483;28;20132;-54
2023/03/21 01:44:55;;;;;;;0.95;0.55;;;13.00;99.90;;;;;;5023537;28;20022;-54
2023/03/21 01:47:21;;;;;;;0.43;0.43;;;13.00;99.90;;;;;;5022273;28;20037;-52
2023/03/21 01:49:51;;;;;;;0.28;0.28;;;13.00;99.90;;;;;;5030489;28;20018;-54
2023/03/21 01:52:22;;;;;;;0.50;0.50;;;13.00;99.90;;;;;;5027788;28;20099;-53
2023/03/21 01:54:49;;;;;;;0.00;0.00;;;13.00;99.90;;;;;;5024335;28;20040;-54
2023/03/21 01:57:44;;;;;;;0.20;0.20;;;13.00;99.90;;;;;;5024082;28;20789;-54
2023/03/21 02:00:11;;;;;;;0.20;0.20;;;13.00;99.90;;;;;;5029970;28;20053;-54
2023/03/21 02:02:49;;;;;;;0.10;0.10;;;13.00;99.90;;;;;;5033647;28;20034;-53
2023/03/21 02:05:22;;;;;;;0.40;0.30;;;13.00;99.90;;;;;;5032650;28;20029;-53
2023/03/21 02:07:51;;;;;;;0.28;0.25;;;13.10;99.90;;;;;;5049632;28;20375;-52
2023/03/21 02:10:17;;;;;;;0.32;0.32;;;13.10;99.90;;;;;;5028079;28;20033;-54
2023/03/21 02:12:43;;;;;;;0.20;0.20;;;13.10;99.90;;;;;;5033818;28;20075;-52
2023/03/21 02:15:10;;;;;;;0.30;0.30;;;13.00;99.90;;;;;;5026195;28;20025;-54
2023/03/21 02:17:40;;;;;;;0.20;0.20;;;13.10;99.90;;;;;;5028786;28;20500;-53
2023/03/21 02:20:32;;;;;;;0.20;0.20;;;13.10;99.90;;;;;;5029795;28;20384;-52
2023/03/21 02:23:25;;;;;;;0.88;0.35;;;13.00;99.90;;;;;;5021818;28;20042;-53
2023/03/21 02:26:09;;;;;;;0.40;0.40;;;13.00;99.90;;;;;;5029984;28;20040;-52
2023/03/21 02:28:38;;;;;;;0.20;0.20;;;12.90;99.90;;;;;;5024640;28;20083;-52
2023/03/21 02:31:31;;;;;;;0.20;0.20;;;12.90;99.90;;;;;;5032530;28;20513;-52
2023/03/21 02:34:11;;;;;;;0.20;0.20;;;12.80;99.90;;;;;;5027857;28;20049;-50
2023/03/21 02:36:54;;;;;;;0.10;0.10;;;12.80;99.90;;;;;;5033775;28;20057;-52
2023/03/21 02:39:43;;;;;;;0.40;0.40;;;12.80;99.90;;;;;;5025168;28;20060;-52
2023/03/21 02:42:27;;;;;;;0.20;0.20;;;12.80;99.90;;;;;;5031358;28;20037;-52
2023/03/21 02:44:56;;;;;;;0.20;0.20;;;12.70;99.90;;;;;;5024291;28;20018;-51
2023/03/21 02:47:40;;;;;;;2.90;0.60;;;12.60;99.90;;;;;;5049435;28;20055;-52
2023/03/21 02:50:23;;;;;;;0.47;0.30;;;12.60;99.90;;;;;;5031723;28;20032;-51
2023/03/21 02:52:52;;;;;;;0.40;0.40;;;12.50;99.90;;;;;;5022183;28;20034;-52
2023/03/21 02:55:30;;;;;;;0.30;0.30;;;12.40;99.90;;;;;;5030742;28;20588;-53
2023/03/21 02:57:58;;;;;;;0.10;0.10;;;12.40;99.90;;;;;;5029566;28;20037;-52
2023/03/21 03:00:32;;;;;;;0.10;0.10;;;12.50;99.90;;;;;;5020773;28;20037;-52
2023/03/21 03:02:58;;;;;;;1.52;0.30;;;12.40;99.90;;;;;;5031402;28;20409;-53
2023/03/21 03:05:26;;;;;;;0.30;0.30;;;12.60;99.90;;;;;;5027322;28;20152;-51
2023/03/21 03:08:24;;;;;;;0.20;0.20;;;12.40;99.90;;;;;;5027354;28;20029;-53
2023/03/21 03:11:31;;;;;;;0.20;0.20;;;12.30;99.90;;;;;;5024119;28;20064;-52
2023/03/21 03:14:17;;;;;;;0.15;0.15;;;12.20;99.90;;;;;;5031808;28;20033;-51
2023/03/21 03:16:49;;;;;;;0.20;0.20;;;;;;;;;;5028253;28;20060;-52
2023/03/21 03:19:30;;;;;;;0.70;0.70;;;12.20;99.90;;;;;;5029201;28;20037;-52
2023/03/21 03:22:01;;;;;;;0.20;0.20;;;12.20;99.90;;;;;;5031473;28;20519;-53
2023/03/21 03:24:30;;;;;;;0.10;0.10;;;12.10;99.90;;;;;;5031355;28;20133;-55
2023/03/21 03:27:05;;;;;;;0.25;0.25;;;12.10;99.90;;;;;;5029105;28;20083;-52
2023/03/21 03:29:34;;;;;;;0.15;0.15;;;12.10;99.90;;;;;;5030713;28;20075;-52
2023/03/21 03:32:03;;;;;;;0.52;0.52;;;;;;;;;;5031211;28;20034;-53
2023/03/21 03:34:38;;;;;;;0.10;0.10;;;12.10;99.90;;;;;;4997857;28;20034;-52
2023/03/21 03:37:07;;;;;;;0.13;0.13;;;12.00;99.90;;;;;;5029139;28;20408;-53
2023/03/21 03:39:50;;;;;;;0.50;0.50;;;12.00;99.90;;;;;;4982063;28;20037;-52
2023/03/21 03:42:20;;;;;;;0.22;0.22;;;11.90;99.90;;;;;;5030061;28;20061;-53
2023/03/21 03:44:46;;;;;;;0.10;0.10;;;12.00;99.90;;;;;;5031080;28;20034;-52
2023/03/21 03:47:18;;;;;;;0.20;0.20;;;11.90;99.90;;;;;;5013549;28;20044;-53
2023/03/21 03:49:59;;;;;;;0.10;0.10;;;11.90;99.90;;;;;;5031032;28;20108;-52
2023/03/21 03:52:32;;;;;;;0.30;0.30;;;11.80;99.90;;;;;;5026604;28;20039;-52
2023/03/21 03:54:59;;;;;;;0.20;0.20;;;11.80;99.90;;;;;;5032936;28;20409;-54
2023/03/21 03:57:25;;;;;;;0.15;0.15;;;11.80;99.90;;;;;;5025489;28;20129;-53
2023/03/21 03:59:52;;;;;;;0.10;0.10;;;11.60;99.90;;;;;;5043911;28;20448;-53
2023/03/21 04:02:19;;;;;;;0.10;0.10;;;11.70;99.90;;;;;;5027764;28;20112;-52
2023/03/21 04:04:45;;;;;;;0.20;0.20;;;11.70;99.90;;;;;;5026280;28;20086;-53
2023/03/21 04:07:12;;;;;;;0.20;0.20;;;11.60;99.90;;;;;;5026827;28;20033;-53
2023/03/21 04:09:37;;;;;;;0.30;0.30;;;11.60;99.90;;;;;;5033004;28;20032;-53
2023/03/21 04:12:03;;;;;;;0.10;0.10;;;11.60;99.90;;;;;;5026355;28;20029;-52
2023/03/21 04:14:29;;;;;;;0.30;0.30;;;11.60;99.90;;;;;;5030875;28;20025;-53
2023/03/21 04:16:55;;;;;;;0.10;0.10;;;11.60;99.90;;;;;;5029050;28;20036;-53
2023/03/21 04:19:21;;;;;;;0.20;0.20;;;;;;;;;;5029350;28;20048;-53
2023/03/21 04:21:47;;;;;;;0.25;0.25;;;11.50;99.90;;;;;;5025446;28;20037;-54
2023/03/21 04:24:14;;;;;;;0.22;0.22;;;11.50;99.90;;;;;;5021971;28;20058;-52
2023/03/21 04:26:40;;;;;;;0.20;0.20;;;11.40;99.90;;;;;;5023929;28;20120;-54
2023/03/21 04:29:06;;;;;;;0.10;0.10;;;11.40;99.90;;;;;;5022717;28;20112;-53
2023/03/21 04:31:33;;;;;;;0.10;0.10;;;11.40;99.90;;;;;;5028974;28;20063;-51
2023/03/21 04:34:04;;;;;;;0.10;0.10;;;11.40;99.90;;;;;;5025487;28;20176;-52
2023/03/21 04:36:37;;;;;;;0.20;0.20;;;11.40;99.90;;;;;;5025698;28;20481;-51
2023/03/21 04:39:07;;;;;;;0.17;0.17;;;11.40;99.90;;;;;;5027927;28;20116;-52
2023/03/21 04:41:33;;;;;;;0.10;0.10;;;11.50;99.90;;;;;;5047067;28;20409;-52
2023/03/21 04:44:00;;;;;;;0.13;0.13;;;11.50;99.90;;;;;;5032868;28;20026;-52
2023/03/21 04:46:26;;;;;;;0.20;0.20;;;11.50;99.90;;;;;;5026200;28;20042;-55
2023/03/21 04:48:51;;;;;;;0.10;0.10;;;11.50;99.90;;;;;;5027648;28;20032;-53
2023/03/21 04:51:17;;;;;;;0.20;0.20;;;11.50;99.90;;;;;;5029840;28;20037;-52
2023/03/21 04:53:44;;;;;;;0.32;0.32;;;11.50;99.90;;;;;;5026146;28;20033;-52
2023/03/21 04:56:13;;;;;;;0.10;0.10;;;11.50;99.90;;;;;;5026605;28;20029;-54
2023/03/21 04:58:41;;;;;;;0.20;0.20;;;11.50;99.90;;;;;;5025356;28;20033;-53
2023/03/21 05:01:07;;;;;;;0.20;0.20;;;11.40;99.90;;;;;;5029150;28;20048;-53
2023/03/21 05:03:38;;;;;;;0.52;0.52;;;11.40;99.90;;;;;;5031029;28;20098;-54
2023/03/21 05:06:07;;;;;;;0.10;0.10;;;11.40;99.90;;;;;;5029122;28;20113;-52
2023/03/21 05:08:34;;;;;;;0.35;0.35;;;11.50;99.90;;;;;;5024137;28;20444;-54
2023/03/21 05:11:01;;;;;;;0.10;0.10;;;11.50;99.90;;;;;;5022433;28;20081;-53
2023/03/21 05:13:26;;;;;;;0.08;0.08;;;11.50;99.90;;;;;;5025464;28;20037;-53
2023/03/21 05:15:52;;;;;;;0.20;0.20;;;11.60;99.90;;;;;;5026442;28;20030;-52
2023/03/21 05:18:23;;;;;;;0.10;0.10;;;11.60;99.90;;;;;;5023824;28;20092;-52
2023/03/21 05:20:52;;;;;;;0.15;0.15;;;11.70;99.90;;;;;;5021088;28;20073;-54
2023/03/21 05:23:19;;;;;;;0.20;0.20;;;11.80;99.90;;;;;;5028767;28;20084;-53
2023/03/21 05:25:45;;;;;;;0.10;0.10;;;11.80;99.90;;;;;;5027489;28;20430;-54
2023/03/21 05:28:10;;;;;;;0.20;0.20;;;11.90;99.90;;;;;;5031464;28;20030;-54
2023/03/21 05:30:36;;;;;;;0.10;0.10;;;12.00;99.90;;;;;;5027245;28;20545;-54
2023/03/21 05:33:02;;;;;;;0.10;0.10;;;12.00;99.90;;;;;;5027527;28;20083;-53
2023/03/21 05:35:29;;;;;;;0.10;0.10;;;12.10;99.90;;;;;;5025518;28;20030;-54
2023/03/21 05:37:56;;;;;;;0.10;0.10;;;12.20;99.90;;;;;;5024618;28;20425;-53
2023/03/21 05:40:22;;;;;;;0.10;0.10;;;12.30;99.90;;;;;;5034120;28;20120;-52
2023/03/21 05:42:48;;;;;;;0.10;0.10;;;12.40;99.90;;;;;;5027792;28;20112;-54
2023/03/21 05:45:14;;;;;;;0.20;0.20;;;12.50;99.90;;;;;;5035103;28;20179;-53
2023/03/21 05:47:40;;;;;;;0.52;0.52;;;12.50;99.90;;;;;;5050245;28;20410;-52
2023/03/21 05:50:06;;;;;;;0.88;0.88;;;12.60;99.90;;;;;;5032106;28;20030;-54
2023/03/21 05:52:33;;;;;;;0.20;0.20;;;12.60;99.90;;;;;;5034146;28;20035;-55
2023/03/21 05:54:58;;;;;;;0.10;0.10;;;12.70;99.90;;;;;;5031738;28;20473;-53
2023/03/21 05:57:27;;;;;;;0.10;0.10;;;12.80;99.90;;;;;;5030347;28;20061;-53
2023/03/21 05:59:53;;;;;;;0.10;0.10;;;12.80;99.90;;;;;;5028331;28;20052;-53
2023/03/21 06:02:19;;;;;;;0.10;0.10;;;12.90;99.90;;;;;;5033564;28;20481;-53
2023/03/21 06:04:45;;;;;;;0.10;0.10;;;12.90;99.90;;;;;;5030815;28;20045;-55
2023/03/21 06:07:11;;;;;;;0.20;0.20;;;13.00;99.90;;;;;;5030485;28;20021;-54
2023/03/21 06:09:36;;;;;;;0.32;0.32;;;13.10;99.90;;;;;;5030477;28;20436;-52
2023/03/21 06:12:02;;;;;;;0.10;0.10;;;13.30;99.90;;;;;;5031544;28;20029;-52
2023/03/21 06:14:28;;;;;;;0.20;0.20;;;13.20;99.90;;;;;;5025851;28;20072;-54
2023/03/21 06:16:54;;;;;;;0.20;0.15;;;13.40;99.90;;;;;;5025097;28;20080;-50
2023/03/21 06:19:20;;;;;;;0.27;0.27;;;13.50;99.90;;;;;;5031457;28;20493;-57
2023/03/21 06:21:46;;;;;;;0.30;0.30;;;13.60;99.90;;;;;;5031059;28;20565;-55
2023/03/21 06:24:12;;;;;;;0.20;0.20;;;13.80;99.90;;;;;;5032850;28;20041;-52
2023/03/21 06:26:38;;;;;;;0.10;0.10;;;14.00;99.90;;;;;;5035165;28;20473;-50
2023/03/21 06:29:04;;;;;;;0.45;0.30;;;13.90;99.90;;;;;;5013629;28;20389;-52
2023/03/21 06:31:30;;;;;;;0.30;0.30;;;13.90;99.90;;;;;;5039947;28;20378;-50
2023/03/21 06:33:56;;;;;;;0.10;0.10;;;14.00;99.90;;;;;;5029943;28;20473;-51
2023/03/21 06:36:22;;;;;;;0.20;0.20;;;13.90;99.90;;;;;;5026385;28;20033;-50
2023/03/21 06:38:47;;;;;;;0.13;0.13;;;13.80;99.90;;;;;;5026519;28;20029;-51
2023/03/21 06:41:15;;;;;;;0.10;0.10;;;14.00;99.90;;;;;;5026985;28;20394;-51
2023/03/21 06:43:41;;;;;;;0.20;0.20;;;13.90;99.90;;;;;;5027866;28;20041;-51
2023/03/21 06:46:07;;;;;;;0.20;0.20;;;14.00;99.90;;;;;;5030020;28;20021;-50
2023/03/21 06:48:33;;;;;;;0.00;0.00;;;14.00;99.90;;;;;;5048000;28;20123;-51
2023/03/21 06:50:59;;;;;;;0.10;0.10;;;14.00;99.90;;;;;;5049224;28;20070;-52
2023/03/21 06:53:28;;;;;;;0.57;0.57;;;14.10;99.90;;;;;;5030732;28;20028;-51
2023/03/21 06:55:54;;;;;;;0.10;0.10;;;14.20;99.90;;;;;;5024713;28;20464;-51
2023/03/21 06:58:21;;;;;;;0.10;0.10;;;14.20;99.90;;;;;;5027959;28;20025;-51
2023/03/21 07:00:47;;;;;;;0.10;0.10;;;14.20;99.90;;;;;;5028668;28;20049;-51
2023/03/21 07:03:14;;;;;;;0.10;0.10;;;14.20;99.90;;;;;;5015069;28;20025;-51
2023/03/21 07:05:40;;;;;;;0.43;0.43;;;14.20;99.90;;;;;;5028953;28;20033;-51
2023/03/21 07:08:10;;;;;;;0.30;0.30;;;14.10;99.90;;;;;;5031672;28;20025;-51
2023/03/21 07:10:43;;;;;;;0.60;0.38;;;14.20;99.90;;;;;;5028961;28;20040;-51
2023/03/21 07:13:09;;;;;;;0.10;0.10;;;14.20;99.90;;;;;;5034066;28;20025;-51
2023/03/21 07:15:36;;;;;;;0.10;0.10;;;14.10;99.90;;;;;;5029165;28;20037;-51
2023/03/21 07:18:07;;;;;;;0.10;0.10;;;14.20;99.90;;;;;;5030490;28;20512;-51
2023/03/21 07:20:33;;;;;;;0.10;0.10;;;14.20;99.90;;;;;;5025358;28;20083;-51
2023/03/21 07:22:59;;;;;;;0.15;0.15;;;14.30;99.90;;;;;;5030918;28;20049;-52
2023/03/21 07:25:26;;;;;;;0.10;0.10;;;14.50;99.90;;;;;;5023263;28;20026;-51
2023/03/21 07:27:52;;;;;;;0.20;0.20;;;14.50;99.90;;;;;;5027345;28;20026;-52
2023/03/21 07:30:18;;;;;;;0.25;0.25;;;14.40;99.90;;;;;;5043205;28;20045;-51
2023/03/21 07:32:44;;;;;;;0.10;0.10;;;14.50;99.90;;;;;;5044291;28;20045;-50
2023/03/21 07:35:12;;;;;;;0.15;0.15;;;14.50;99.90;;;;;;5021022;28;20041;-51
2023/03/21 07:37:39;;;;;;;0.13;0.13;;;14.70;99.90;;;;;;5023661;28;20069;-52
2023/03/21 07:40:09;;;;;;;0.25;0.20;;;14.80;99.90;;;;;;5023226;28;20371;-51
2023/03/21 07:42:39;;;;;;;0.98;0.90;;;14.90;99.90;;;;;;4995604;28;20068;-52
2023/03/21 07:45:07;;;;;;;0.28;0.28;;;14.90;99.90;;;;;;5026425;28;20124;-52
2023/03/21 07:47:33;;;;;;;0.20;0.20;;;15.10;99.90;;;;;;5016591;28;20033;-52
2023/03/21 07:49:59;;;;;;;0.15;0.15;;;15.20;99.90;;;;;;5022686;28;20486;-51
2023/03/21 07:52:25;;;;;;;0.32;0.32;;;15.30;99.90;;;;;;5019820;28;20025;-52
2023/03/21 07:54:51;;;;;;;0.10;0.10;;;15.40;99.90;;;;;;5026112;28;20072;-52
2023/03/21 07:57:16;;;;;;;0.20;0.20;;;15.10;99.90;;;;;;5029727;28;20437;-51
2023/03/21 07:59:42;;;;;;;0.30;0.30;;;15.10;99.90;;;;;;5030398;28;20053;-51
2023/03/21 08:02:16;;;;;;;0.17;0.17;;;15.10;99.90;;;;;;5031400;28;20040;-52
2023/03/21 08:04:42;;;;;;;0.10;0.10;;;15.20;99.90;;;;;;5031083;28;20514;-51
2023/03/21 08:07:09;;;;;;;0.10;0.10;;;15.60;99.90;;;;;;5030390;28;20037;-52
2023/03/21 08:09:36;;;;;;;0.50;0.50;;;15.30;99.90;;;;;;5030913;28;20026;-51
2023/03/21 08:12:02;;;;;;;0.88;0.55;;;15.30;99.90;;;;;;5031034;28;20381;-52
2023/03/21 08:14:28;;;;;;;0.20;0.20;;;15.40;99.90;;;;;;5030807;28;20057;-50
2023/03/21 08:16:54;;;;;;;0.28;0.28;;;15.70;99.90;;;;;;4997709;28;20083;-52
2023/03/21 08:19:20;;;;;;;0.40;0.40;;;15.70;99.90;;;;;;5014256;28;20123;-51
2023/03/21 08:21:48;;;;;;;0.73;0.73;;;15.70;99.90;;;;;;5030605;28;20116;-51
2023/03/21 08:24:14;;;;;;;0.25;0.25;;;15.80;99.90;;;;;;5029966;28;20041;-51
2023/03/21 08:26:41;;;;;;;0.15;0.15;;;15.80;99.90;;;;;;5029845;28;20033;-52
2023/03/21 08:29:07;;;;;;;0.10;0.10;;;16.00;99.90;;;;;;5030992;28;20068;-52
2023/03/21 08:31:33;;;;;;;0.20;0.20;;;16.10;99.90;;;;;;5012819;28;20073;-51
2023/03/21 08:33:58;;;;;;;1.08;0.98;;;16.40;99.90;;;;;;5030985;28;20112;-52
2023/03/21 08:36:25;;;;;;;0.20;0.20;;;16.60;99.90;;;;;;5030537;28;20033;-51
2023/03/21 08:38:55;;;;;;;0.20;0.20;;;16.70;99.90;;;;;;5025798;28;20121;-52
2023/03/21 08:41:23;;;;;;;0.40;0.40;;;16.80;99.90;;;;;;5028304;28;20034;-51
2023/03/21 08:43:50;;;;;;;0.10;0.10;;;;;;;;;;5024537;28;20022;-51
2023/03/21 08:46:15;;;;;;;0.20;0.20;;;16.60;99.90;;;;;;5027028;28;20033;-51
2023/03/21 08:48:41;;;;;;;0.40;0.40;;;16.50;99.90;;;;;;5027399;28;20117;-51
2023/03/21 08:51:07;;;;;;;1.35;1.13;;;16.60;99.90;;;;;;5029154;28;20057;-52
2023/03/21 08:53:33;;;;;;;0.15;0.15;;;16.50;99.90;;;;;;5022908;28;20062;-52
2023/03/21 08:55:59;;;;;;;0.20;0.20;;;16.70;99.90;;;;;;5026471;28;20062;-52
2023/03/21 08:58:25;;;;;;;0.52;0.20;;;16.60;99.90;;;;;;5027682;28;20026;-52
2023/03/21 09:00:51;;;;;;;0.25;0.25;;;16.60;99.90;;;;;;5022458;28;20034;-51
2023/03/21 09:03:16;;;;;;;0.13;0.13;;;16.60;99.90;;;;;;5035511;28;20369;-51
2023/03/21 09:05:44;;;;;;;1.95;0.35;;;16.70;99.90;;;;;;5033607;28;20095;-52
2023/03/21 09:08:11;;;;;;;0.20;0.20;;;16.60;99.90;;;;;;5020656;28;20428;-51
2023/03/21 09:10:38;;;;;;;0.30;0.30;;;16.80;99.90;;;;;;5034539;28;20043;-52
2023/03/21 09:13:04;;;;;;;0.45;0.45;;;17.00;99.90;;;;;;5034925;28;20103;-51
2023/03/21 09:15:30;;;;;;;0.30;0.30;;;17.00;99.90;;;;;;5030693;28;20117;-51
2023/03/21 09:17:57;;;;;;;0.10;0.10;;;17.10;99.90;;;;;;5032741;28;20504;-54
2023/03/21 09:20:29;;;;;;;0.10;0.10;;;;;;;;;;5029296;28;20478;-50
2023/03/21 09:22:56;;;;;;;0.13;0.13;;;17.50;99.90;;;;;;5031988;28;20499;-52
2023/03/21 09:25:22;;;;;;;0.10;0.10;;;17.10;99.90;;;;;;5029311;28;20037;-53
2023/03/21 09:27:48;;;;;;;0.10;0.10;;;16.90;99.90;;;;;;5028709;28;20029;-55
2023/03/21 09:30:17;;;;;;;0.30;0.30;;;17.00;99.90;;;;;;5032617;28;20057;-51
2023/03/21 09:32:48;;;;;;;0.10;0.10;;;16.90;99.90;;;;;;5030092;28;20060;-49
2023/03/21 09:35:18;;;;;;;0.10;0.10;;;17.10;99.90;;;;;;5032807;28;20114;-49
2023/03/21 09:37:47;;;;;;;0.22;0.20;;;;;;;;;;5030335;28;20042;-50
2023/03/21 09:40:19;;;;;;;0.30;0.30;;;17.50;99.90;;;;;;5030324;28;20061;-51
2023/03/21 09:43:05;;;;;;;0.50;0.50;;;17.50;99.90;;;;;;5033558;28;20030;-50
2023/03/21 09:45:37;;;;;;;0.73;0.25;;;;;;;;;;5028450;28;20087;-50
2023/03/21 09:48:06;;;;;;;0.32;0.32;;;18.00;99.90;;;;;;5025823;28;20091;-50
2023/03/21 09:50:35;;;;;;;0.20;0.20;;;17.90;99.90;;;;;;5024590;28;20045;-50
2023/03/21 09:53:06;;;;;;;0.35;0.32;;;18.10;99.90;;;;;;5025142;28;20057;-53
2023/03/21 09:55:35;;;;;;;0.20;0.20;;;18.60;99.90;;;;;;5028693;28;20112;-50
2023/03/21 09:58:01;;;;;;;0.20;0.20;;;;;;;;;;5014406;28;20034;-48
2023/03/21 10:00:31;;;;;;;0.85;0.85;;;;;;;;;;5026849;28;20033;-49
2023/03/21 10:03:05;;;;;;;0.80;0.57;;;19.60;99.90;;;;;;5045351;28;20132;-52
2023/03/21 10:05:33;;;;;;;0.13;0.13;;;;;;;;;;5028250;28;20469;-55
2023/03/21 10:08:03;;;;;;;0.20;0.20;;;20.00;99.90;;;;;;5031411;28;20029;-52
2023/03/21 10:10:35;;;;;;;0.38;0.38;;;;;;;;;;5025205;28;20079;-47
2023/03/21 10:13:01;;;;;;;;;;;20.20;99.90;;;;;;5029281;28;20038;-45
2023/03/21 10:15:28;;;;;;;0.20;0.20;;;;;;;;;;5028325;28;19996;-46
2023/03/21 10:18:01;;;;;;;0.10;0.10;;;19.10;99.90;;;;;;5033451;28;20025;-45
2023/03/21 10:20:33;;;;;;;0.68;0.68;;;18.90;99.90;;;;;;5022113;28;20053;-48
2023/03/21 10:23:01;;;;;;;;;;;18.60;99.90;;;;;;5032899;28;20049;-48
2023/03/21 10:25:57;;;;;;;0.52;0.35;;;18.60;99.90;;;;;;5040158;28;20484;-49
2023/03/21 10:28:28;;;;;;;0.20;0.20;;;;;;;;;;5021338;28;20069;-52
2023/03/21 10:31:14;;;;;;;0.20;0.10;;;18.20;99.90;;;;;;5028967;28;20044;-50
2023/03/21 10:33:43;;;;;;;0.20;0.20;;;18.20;99.90;;;;;;5033839;28;20469;-50
2023/03/21 10:36:16;;;;;;;0.10;0.10;;;18.20;99.90;;;;;;5024638;28;20030;-49
2023/03/21 10:38:47;;;;;;;0.00;0.00;;;18.10;99.90;;;;;;5032279;28;20057;-51
2023/03/21 10:41:13;;;;;;;0.40;0.40;;;18.20;99.90;;;;;;5028775;28;20075;-52
2023/03/21 10:43:43;;;;;;;0.10;0.10;;;18.60;99.90;;;;;;5028189;28;20433;-49
2023/03/21 10:46:20;;;;;;;0.45;0.45;;;18.40;99.90;;;;;;5027207;28;20033;-52
2023/03/21 10:48:51;;;;;;;0.10;0.10;;;18.60;99.90;;;;;;5033283;28;20029;-54
2023/03/21 10:51:24;;;;;;;0.10;0.10;;;18.50;99.90;;;;;;5026797;28;20104;-48
2023/03/21 10:53:56;;;;;;;0.20;0.20;;;18.70;99.90;;;;;;5025381;28;20030;-48
2023/03/21 10:56:28;;;;;;;0.10;0.10;;;18.60;99.90;;;;;;5031345;28;20037;-52
2023/03/21 10:58:57;;;;;;;0.17;0.17;;;18.70;99.90;;;;;;5044305;28;20033;-52
2023/03/21 11:01:31;;;;;;;0.47;0.32;;;18.40;99.90;;;;;;5030423;28;20124;-53
2023/03/21 11:04:00;;;;;;;0.15;0.15;;;18.30;99.90;;;;;;5057361;28;20033;-52
2023/03/21 11:06:28;;;;;;;0.10;0.10;;;;;;;;;;5051932;28;20094;-55
2023/03/21 11:08:56;;;;;;;0.10;0.10;;;;;;;;;;5048564;28;20536;-47
2023/03/21 11:11:28;;;;;;;2.92;0.30;;;;;;;;;;5043585;28;20044;-51
2023/03/21 11:14:00;;;;;;;0.10;0.10;;;17.50;99.90;;;;;;5049562;28;20029;-53
2023/03/21 11:16:32;;;;;;;0.20;0.20;;;17.40;99.90;;;;;;5047712;28;20465;-49
2023/03/21 11:19:06;;;;;;;0.25;0.25;;;17.90;99.90;;;;;;5048321;28;20068;-50
2023/03/21 11:21:36;;;;;;;0.50;0.50;;;17.80;99.90;;;;;;5047811;28;20079;-49
2023/03/21 11:24:02;;;;;;;0.10;0.10;;;17.90;99.90;;;;;;4999966;28;20048;-50
2023/03/21 11:26:37;;;;;;;0.15;0.15;;;17.90;99.90;;;;;;5016694;28;20044;-50
2023/03/21 11:29:33;;;;;;;0.00;0.00;;;17.90;99.90;;;;;;5046031;28;20025;-50
2023/03/21 11:32:07;;;;;;;0.10;0.10;;;17.60;99.90;;;;;;5011487;28;20076;-51
2023/03/21 11:34:49;;;;;;;0.35;0.35;;;17.70;99.90;;;;;;5011819;28;20041;-47
2023/03/21 11:37:38;;;;;;;0.50;0.40;;;17.70;99.90;;;;;;4993577;28;20027;-46
2023/03/21 11:40:12;;;;;;;0.08;0.08;;;17.80;99.90;;;;;;4972175;28;20607;-51
2023/03/21 11:42:43;;;;;;;0.15;0.15;;;17.60;99.90;;;;;;4988009;28;20050;-49
2023/03/21 11:45:17;;;;;;;0.50;0.50;;;17.80;99.90;;;;;;4972387;28;20038;-51
2023/03/21 11:47:44;;;;;;;0.13;0.13;;;;;;;;;;4959936;28;20074;-51
2023/03/21 11:50:20;;;;;;;0.20;0.20;;;18.20;99.90;;;;;;4951474;29;20039;-54
2023/03/21 11:53:00;;;;;;;0.30;0.30;;;18.50;99.90;;;;;;4953311;28;20047;-51
2023/03/21 11:55:45;;;;;;;0.43;0.43;;;;;;;;;;4953318;28;20043;-51
2023/03/21 11:58:24;;;;;;;0.10;0.10;;;19.30;99.90;;;;;;4953290;29;20554;-48
2023/03/21 12:00:59;;;;;;;0.22;0.22;;;;;;;;;;4953016;28;20102;-50
2023/03/21 12:03:37;;;;;;;0.35;0.32;;;;;;;;;;4952758;28;20046;-48
2023/03/21 12:06:28;;;;;;;1.15;0.35;;;21.00;99.90;;;;;;4952789;29;20042;-49
2023/03/21 12:09:17;;;;;;;1.63;0.70;;;20.70;99.90;;;;;;4990319;28;20042;-49
2023/03/21 12:12:06;;;;;;;0.40;0.40;;;20.90;99.90;;;;;;5044636;28;20080;-50
2023/03/21 12:14:44;;;;;;;1.95;1.42;;;21.50;99.90;;;;;;5025517;28;20148;-51
2023/03/21 12:17:43;;;;;;;0.75;0.40;;;21.10;99.90;;;;;;4981253;28;20493;-50
2023/03/21 12:20:11;;;;;;;0.00;0.00;;;20.70;99.90;;;;;;5028639;28;20149;-53
2023/03/21 12:23:10;;;;;;;0.45;0.45;;;21.20;99.90;;;;;;5030283;28;20106;-52
2023/03/21 12:25:53;;;;;;;0.20;0.20;;;21.10;99.90;;;;;;4952407;29;20043;-51
2023/03/21 12:28:46;;;;;;;1.48;0.90;;;21.00;99.90;;;;;;4952322;28;20031;-51
2023/03/21 12:31:28;;;;;;;0.10;0.10;;;20.40;99.90;;;;;;4948565;28;20066;-50
2023/03/21 12:34:13;;;;;;;0.28;0.28;;;;;;;;;;4952281;29;20094;-49
2023/03/21 12:36:45;;;;;;;0.35;0.35;;;;;;;;;;4952197;28;20123;-51
2023/03/21 12:39:19;;;;;;;;;;;20.90;99.90;;;;;;4952075;29;20521;-51
2023/03/21 12:42:12;;;;;;;0.10;0.10;;;21.40;99.90;;;;;;4952287;29;19985;-51
2023/03/21 12:44:43;;;;;;;0.00;0.00;;;21.60;99.90;;;;;;4950540;29;20098;-51
2023/03/21 12:47:14;;;;;;;0.32;0.28;;;;;;;;;;4936397;28;20035;-52
2023/03/21 12:49:47;;;;;;;0.13;0.13;;;21.80;99.90;;;;;;4952088;29;20519;-51
2023/03/21 12:52:22;;;;;;;0.20;0.20;;;;;;;;;;4963547;28;20037;-51
2023/03/21 12:54:52;;;;;;;0.10;0.10;;;22.00;99.90;;;;;;4981638;28;20041;-51
2023/03/21 12:57:20;;;;;;;0.13;0.13;;;;;;;;;;4969947;28;20088;-51
2023/03/21 13:00:22;;;;;;;0.10;0.10;;;22.30;99.90;;;;;;4966990;28;20051;-51
2023/03/21 13:03:02;;;;;;;0.30;0.22;;;22.40;99.90;;;;;;5008231;28;20103;-51
2023/03/21 13:05:30;;;;;;;0.10;0.10;;;;;;;;;;5029960;28;20026;-51
2023/03/21 13:08:28;;;;;;;0.13;0.13;;;23.00;99.90;;;;;;5031254;28;20531;-51
2023/03/21 13:10:55;;;;;;;0.10;0.10;;;23.20;99.90;;;;;;5023729;28;20045;-51
2023/03/21 13:13:46;;;;;;;0.10;0.10;;;23.50;99.90;;;;;;5024831;28;20557;-51
2023/03/21 13:16:44;;;;;;;0.10;0.10;;;23.50;99.90;;;;;;5019145;28;20034;-51